Time;durP1;ratioP1;P1;durP2;ratioP2;P2;SDS_P1;SDS_P2;PMS_P1;PMS_P2;Temp;Humidity;BMP_temperature;BMP_pressure;BME280_temperature;BME280_humidity;BME280_pressure;Samples;Min_cycle;Max_cycle;Signal;HPM_P1;HPM_P2
2021/04/15 00:01:58;;;;;;;5.33;4.00;;;;;;;3.94;83.35;95847.16;5151487;27;20231;-64
2021/04/15 00:04:25;;;;;;;5.53;4.07;;;;;;;3.80;83.39;95846.00;5151536;27;20217;-65
2021/04/15 00:06:52;;;;;;;4.37;3.70;;;;;;;3.75;83.94;95853.66;5151353;27;20588;-64
2021/04/15 00:09:21;;;;;;;5.67;4.60;;;;;;;3.82;83.86;95857.59;5151400;27;20198;-64
2021/04/15 00:11:51;;;;;;;5.27;4.30;;;;;;;3.83;84.12;95860.94;5151686;27;20269;-64
2021/04/15 00:14:20;;;;;;;5.33;4.30;;;;;;;3.79;83.88;95860.63;5151311;27;20228;-65
2021/04/15 00:16:48;;;;;;;5.07;4.43;;;;;;;3.81;83.77;95852.69;5151223;27;20683;-65
2021/04/15 00:19:18;;;;;;;5.03;4.07;;;;;;;3.71;83.94;95855.94;5151191;27;20194;-65
2021/04/15 00:21:45;;;;;;;4.60;3.93;;;;;;;3.79;83.74;95852.94;5155011;27;20244;-63
2021/04/15 00:24:11;;;;;;;4.60;3.90;;;;;;;3.78;84.25;95853.97;5155688;27;20196;-64
2021/04/15 00:26:38;;;;;;;4.70;4.20;;;;;;;3.78;83.50;95850.63;5155326;27;20200;-63
2021/04/15 00:29:06;;;;;;;6.77;4.90;;;;;;;3.88;82.53;95858.44;5155323;27;20273;-64
2021/04/15 00:31:33;;;;;;;5.83;4.30;;;;;;;3.95;83.42;95853.09;5155229;27;20282;-65
2021/04/15 00:34:00;;;;;;;4.17;3.40;;;;;;;4.05;82.08;95851.41;5155306;27;20698;-63
2021/04/15 00:36:28;;;;;;;5.73;4.00;;;;;;;3.98;81.81;95844.91;5155111;27;20195;-63
2021/04/15 00:38:55;;;;;;;4.47;3.83;;;;;;;4.04;82.33;95846.47;5155150;27;20190;-64
2021/04/15 00:41:23;;;;;;;5.60;4.47;;;;;;;4.00;82.08;95841.06;5154882;27;20643;-63
2021/04/15 00:43:51;;;;;;;5.50;4.33;;;;;;;3.86;82.63;95845.03;5154968;27;20182;-64
2021/04/15 00:46:44;;;;;;;4.93;4.13;;;;;;;3.99;83.46;95836.94;5154773;27;20660;-64
2021/04/15 00:49:13;;;;;;;5.53;4.13;;;;;;;3.90;82.50;95840.97;5154773;27;20204;-66
2021/04/15 00:51:43;;;;;;;7.23;4.90;;;;;;;3.97;83.56;95836.41;5154759;27;20201;-64
2021/04/15 00:54:14;;;;;;;5.80;4.90;;;;;;;4.05;82.64;95843.69;5154734;27;20213;-62
2021/04/15 00:56:41;;;;;;;5.30;4.23;;;;;;;3.94;83.33;95846.38;5155042;27;20224;-64
2021/04/15 00:59:08;;;;;;;5.97;4.70;;;;;;;3.94;83.46;95848.94;5154890;27;20189;-62
2021/04/15 01:01:36;;;;;;;6.10;4.73;;;;;;;4.09;84.04;95843.97;5154733;27;20225;-64
2021/04/15 01:04:04;;;;;;;5.47;4.53;;;;;;;4.12;82.17;95839.13;5154856;27;20281;-64
2021/04/15 01:06:32;;;;;;;4.90;4.03;;;;;;;4.01;83.15;95847.75;5154727;27;20688;-64
2021/04/15 01:09:00;;;;;;;4.30;3.90;;;;;;;4.10;83.38;95840.38;5154513;27;20672;-65
2021/04/15 01:11:41;;;;;;;6.27;4.50;;;;;;;4.08;84.50;95840.63;5154874;27;20276;-64
2021/04/15 01:14:16;;;;;;;5.17;4.40;;;;;;;4.08;83.24;95845.78;5154401;27;20218;-65
2021/04/15 01:16:51;;;;;;;6.43;4.70;;;;;;;4.03;83.67;95845.72;5154527;27;20247;-64
2021/04/15 01:19:38;;;;;;;6.17;4.53;;;;;;;4.21;83.14;95844.59;5154367;27;20189;-64
2021/04/15 01:22:28;;;;;;;5.70;4.30;;;;;;;4.18;82.66;95850.25;5154070;27;20232;-63
2021/04/15 01:25:03;;;;;;;5.63;4.57;;;;;;;4.31;82.03;95847.25;5154461;27;20200;-64
2021/04/15 01:27:40;;;;;;;6.00;5.20;;;;;;;4.20;81.84;95850.75;5154588;27;20674;-64
2021/04/15 01:30:24;;;;;;;6.80;4.90;;;;;;;4.26;82.81;95853.13;5154237;27;20233;-63
2021/04/15 01:32:58;;;;;;;6.53;4.67;;;;;;;4.18;83.04;95847.66;5153130;27;20584;-64
2021/04/15 01:35:30;;;;;;;6.50;5.30;;;;;;;4.22;83.97;95846.94;5154323;27;20264;-64
2021/04/15 01:38:07;;;;;;;7.10;5.10;;;;;;;4.23;82.39;95848.47;5154149;27;20684;-63
2021/04/15 01:40:38;;;;;;;5.33;4.43;;;;;;;4.05;81.93;95843.69;5154218;27;20264;-64
2021/04/15 01:43:13;;;;;;;7.37;5.73;;;;;;;3.96;83.64;95850.28;5154031;27;20199;-62
2021/04/15 01:45:42;;;;;;;6.33;5.07;;;;;;;4.05;83.61;95848.81;5154083;27;20261;-64
2021/04/15 01:48:13;;;;;;;5.73;4.90;;;;;;;3.94;83.83;95847.16;5153923;27;20256;-64
2021/04/15 01:50:45;;;;;;;6.23;5.30;;;;;;;3.88;83.68;95846.34;5153936;27;20730;-65
2021/04/15 01:53:17;;;;;;;7.37;5.40;;;;;;;3.72;84.70;95849.78;5153605;27;20478;-65
2021/04/15 01:55:49;;;;;;;6.77;5.03;;;;;;;3.65;84.30;95849.19;5153641;27;20213;-63
2021/04/15 01:58:20;;;;;;;6.60;5.17;;;;;;;3.54;84.77;95852.66;5153794;27;20210;-64
2021/04/15 02:01:01;;;;;;;6.60;5.23;;;;;;;3.40;85.42;95852.22;5153450;27;20315;-63
2021/04/15 02:03:31;;;;;;;5.37;4.60;;;;;;;3.44;86.36;95853.31;5153502;27;20565;-64
2021/04/15 02:06:02;;;;;;;6.10;4.80;;;;;;;3.50;85.96;95853.38;5153472;27;20623;-64
2021/04/15 02:08:33;;;;;;;7.63;5.23;;;;;;;3.52;86.23;95859.84;5153654;27;20190;-64
2021/04/15 02:11:04;;;;;;;6.67;5.47;;;;;;;3.55;85.51;95851.63;5153416;27;20246;-65
2021/04/15 02:13:33;;;;;;;6.77;5.70;;;;;;;3.54;85.47;95857.03;5134536;27;20648;-65
2021/04/15 02:16:05;;;;;;;7.10;5.53;;;;;;;3.56;86.95;95866.03;5153172;27;20202;-64
2021/04/15 02:18:36;;;;;;;6.67;5.43;;;;;;;3.68;86.83;95863.34;5153126;27;20731;-64
2021/04/15 02:21:10;;;;;;;7.97;5.80;;;;;;;3.77;86.79;95854.97;5152919;27;20225;-64
2021/04/15 02:23:43;;;;;;;8.33;6.30;;;;;;;3.71;85.94;95858.50;5153042;27;20203;-64
2021/04/15 02:26:15;;;;;;;9.57;7.03;;;;;;;3.69;87.61;95864.88;5153403;27;20200;-63
2021/04/15 02:28:47;;;;;;;8.13;6.53;;;;;;;3.69;87.30;95872.59;5153271;27;20201;-64
2021/04/15 02:31:20;;;;;;;9.90;7.57;;;;;;;3.47;88.11;95868.25;5153013;27;20194;-64
2021/04/15 02:33:52;;;;;;;14.40;9.67;;;;;;;3.58;89.57;95863.25;5153323;27;20189;-63
2021/04/15 02:36:20;;;;;;;10.47;7.77;;;;;;;3.73;89.11;95865.97;5153009;27;20201;-64
2021/04/15 02:38:57;;;;;;;11.27;8.53;;;;;;;3.61;89.70;95862.75;5152708;27;20198;-64
2021/04/15 02:41:27;;;;;;;11.77;8.83;;;;;;;3.71;89.47;95866.22;5152559;27;20236;-64
2021/04/15 02:44:00;;;;;;;11.67;8.47;;;;;;;3.76;88.59;95860.34;5152638;27;20197;-64
2021/04/15 02:46:33;;;;;;;13.60;9.23;;;;;;;3.86;88.81;95866.38;5153013;27;20193;-65
2021/04/15 02:49:02;;;;;;;13.47;9.60;;;;;;;3.88;89.11;95873.84;5152692;27;20194;-64
2021/04/15 02:51:32;;;;;;;12.87;9.00;;;;;;;3.87;88.10;95875.66;5152414;27;20197;-63
2021/04/15 02:54:06;;;;;;;12.80;9.50;;;;;;;3.92;86.92;95874.94;5152287;27;20334;-64
2021/04/15 02:56:43;;;;;;;12.83;9.40;;;;;;;3.96;87.02;95875.22;5152522;27;20197;-64
2021/04/15 02:59:14;;;;;;;12.67;9.23;;;;;;;3.77;88.47;95878.09;5152372;27;20196;-65
2021/04/15 03:01:46;;;;;;;12.03;9.03;;;;;;;3.78;89.43;95876.31;5152196;27;20704;-64
2021/04/15 03:04:20;;;;;;;12.37;9.07;;;;;;;3.77;89.96;95869.63;5152431;27;20826;-63
2021/04/15 03:06:49;;;;;;;12.33;8.40;;;;;;;3.68;89.53;95868.50;5152567;27;20660;-64
2021/04/15 03:09:18;;;;;;;12.13;9.47;;;;;;;3.73;88.62;95881.41;5152155;27;20201;-62
2021/04/15 03:11:49;;;;;;;11.20;8.50;;;;;;;3.70;88.82;95884.44;5152515;27;20235;-64
2021/04/15 03:14:21;;;;;;;12.80;8.77;;;;;;;3.80;88.50;95876.84;5152502;27;20240;-64
2021/04/15 03:16:52;;;;;;;11.77;9.47;;;;;;;3.84;89.91;95877.91;5133784;27;20577;-65
2021/04/15 03:19:23;;;;;;;11.90;9.17;;;;;;;3.87;88.04;95890.28;5152129;27;20196;-63
2021/04/15 03:21:59;;;;;;;12.57;9.60;;;;;;;3.73;89.39;95876.25;5152208;27;20230;-64
2021/04/15 03:24:30;;;;;;;10.67;8.90;;;;;;;3.75;90.26;95876.78;5151923;27;20197;-64
2021/04/15 03:27:05;;;;;;;11.97;9.27;;;;;;;3.82;89.82;95879.97;5152167;27;20671;-64
2021/04/15 03:29:39;;;;;;;12.30;9.63;;;;;;;3.90;89.64;95882.88;5151923;27;20807;-64
2021/04/15 03:32:16;;;;;;;12.50;9.83;;;;;;;3.84;89.72;95880.47;5152136;27;20228;-64
2021/04/15 03:34:51;;;;;;;11.63;9.43;;;;;;;3.85;88.90;95874.31;5151882;27;20202;-64
2021/04/15 03:37:23;;;;;;;13.57;10.73;;;;;;;3.87;89.18;95877.44;5151832;27;20325;-64
2021/04/15 03:39:53;;;;;;;13.90;10.77;;;;;;;3.89;89.88;95870.25;5151862;27;20194;-64
2021/04/15 03:42:25;;;;;;;14.80;9.70;;;;;;;3.78;89.56;95874.53;5151841;27;20282;-65
2021/04/15 03:44:57;;;;;;;13.47;9.80;;;;;;;3.87;89.91;95875.66;5151843;27;20204;-65
2021/04/15 03:47:30;;;;;;;16.40;10.43;;;;;;;3.96;89.69;95873.41;5151713;27;20725;-65
2021/04/15 03:50:02;;;;;;;12.37;9.60;;;;;;;3.96;89.66;95876.00;5151668;27;20580;-65
2021/04/15 03:52:36;;;;;;;14.07;10.70;;;;;;;3.90;88.52;95871.81;5151810;27;20658;-63
2021/04/15 03:55:18;;;;;;;13.20;10.70;;;;;;;3.97;89.67;95867.25;5151980;27;20217;-65
2021/04/15 03:57:46;;;;;;;14.83;11.37;;;;;;;3.95;89.26;95871.06;5155853;27;20206;-63
2021/04/15 04:00:17;;;;;;;14.23;10.83;;;;;;;3.92;89.78;95872.34;5156249;27;20225;-65
2021/04/15 04:02:49;;;;;;;14.17;11.00;;;;;;;3.87;90.16;95872.31;5155965;27;20222;-63
2021/04/15 04:05:22;;;;;;;15.30;11.00;;;;;;;3.92;89.97;95866.44;5156140;27;20238;-64
2021/04/15 04:07:52;;;;;;;15.03;11.70;;;;;;;3.87;90.96;95869.72;5155862;27;20200;-65
2021/04/15 04:10:23;;;;;;;15.03;11.13;;;;;;;4.01;89.96;95868.31;5155681;27;20668;-64
2021/04/15 04:12:57;;;;;;;13.53;10.73;;;;;;;4.02;88.96;95869.88;5155926;27;20193;-64
2021/04/15 04:15:29;;;;;;;13.90;10.53;;;;;;;3.93;89.12;95866.19;5155497;27;20638;-65
2021/04/15 04:18:07;;;;;;;14.13;11.30;;;;;;;4.14;88.60;95873.06;5155873;27;20194;-65
2021/04/15 04:20:37;;;;;;;12.33;10.10;;;;;;;3.95;88.37;95873.66;5155407;27;20197;-65
2021/04/15 04:23:10;;;;;;;14.17;10.27;;;;;;;3.99;88.23;95867.00;5155314;27;20205;-65
2021/04/15 04:25:46;;;;;;;15.00;11.13;;;;;;;4.01;89.25;95867.53;5155630;27;20190;-64
2021/04/15 04:28:19;;;;;;;14.83;10.87;;;;;;;4.03;89.08;95871.44;5155404;27;20668;-65
2021/04/15 04:30:50;;;;;;;14.30;10.60;;;;;;;4.11;87.60;95873.56;5155219;27;20198;-64
2021/04/15 04:33:25;;;;;;;15.10;10.70;;;;;;;4.18;88.36;95870.81;5155280;27;20250;-65
2021/04/15 04:35:52;;;;;;;14.27;10.93;;;;;;;4.13;89.03;95871.53;5155439;27;20188;-64
2021/04/15 04:38:21;;;;;;;14.80;10.80;;;;;;;4.28;88.33;95879.38;5155619;27;20193;-64
2021/04/15 04:40:53;;;;;;;14.53;10.63;;;;;;;4.09;88.88;95885.09;5154997;27;20232;-64
2021/04/15 04:43:24;;;;;;;12.90;10.17;;;;;;;4.12;88.63;95887.22;5154997;27;20249;-64
2021/04/15 04:45:58;;;;;;;15.63;10.40;;;;;;;4.24;88.99;95885.25;5155071;27;20193;-63
2021/04/15 04:48:31;;;;;;;18.77;11.57;;;;;;;4.42;88.92;95882.34;5155008;27;20182;-65
2021/04/15 04:51:04;;;;;;;13.93;11.10;;;;;;;4.39;87.41;95882.03;5154979;27;20672;-64
2021/04/15 04:53:34;;;;;;;15.13;11.20;;;;;;;4.56;87.50;95885.28;5154864;27;20573;-63
2021/04/15 04:56:20;;;;;;;14.97;10.60;;;;;;;4.57;87.92;95877.31;5154542;27;20213;-64
2021/04/15 04:58:50;;;;;;;14.43;10.13;;;;;;;4.61;86.84;95875.03;5155392;27;20253;-63
2021/04/15 05:01:17;;;;;;;14.50;10.93;;;;;;;4.53;86.79;95883.22;5154585;27;20233;-63
2021/04/15 05:03:46;;;;;;;16.03;10.30;;;;;;;4.51;87.17;95887.81;5154703;27;20728;-63
2021/04/15 05:06:22;;;;;;;12.90;9.93;;;;;;;4.57;86.13;95892.00;5154146;27;20289;-64
2021/04/15 05:08:57;;;;;;;13.37;10.10;;;;;;;4.62;86.67;95892.03;5154262;27;20201;-64
2021/04/15 05:11:28;;;;;;;14.00;9.53;;;;;;;4.45;86.16;95904.22;5154163;27;20194;-63
2021/04/15 05:13:55;;;;;;;15.00;9.90;;;;;;;4.48;85.73;95898.59;5154131;27;20249;-63
2021/04/15 05:16:25;;;;;;;12.20;9.43;;;;;;;4.45;87.32;95896.50;5153996;27;20655;-64
2021/04/15 05:18:53;;;;;;;13.47;10.40;;;;;;;4.53;86.57;95894.28;5154357;27;20198;-63
2021/04/15 05:21:25;;;;;;;13.80;10.17;;;;;;;4.54;86.38;95897.59;5153791;27;20257;-64
2021/04/15 05:23:57;;;;;;;13.93;10.60;;;;;;;4.49;85.74;95898.34;5154130;27;20197;-64
2021/04/15 05:26:27;;;;;;;15.27;10.47;;;;;;;4.34;87.41;95896.41;5153754;27;20240;-63
2021/04/15 05:28:57;;;;;;;11.57;8.80;;;;;;;4.43;87.56;95893.41;5154351;27;20215;-65
2021/04/15 05:31:28;;;;;;;12.60;9.83;;;;;;;4.55;88.43;95899.94;5153615;27;20248;-63
2021/04/15 05:33:58;;;;;;;15.83;10.27;;;;;;;4.61;87.99;95887.91;5153681;27;20189;-64
2021/04/15 05:36:31;;;;;;;11.73;8.93;;;;;;;4.63;87.54;95891.00;5153797;27;20266;-65
2021/04/15 05:39:01;;;;;;;11.13;9.13;;;;;;;4.73;87.22;95893.66;5153506;27;20285;-64
2021/04/15 05:41:31;;;;;;;13.53;8.90;;;;;;;4.93;87.15;95882.75;5153404;27;20268;-63
2021/04/15 05:44:02;;;;;;;10.03;8.00;;;;;;;4.74;86.56;95892.63;5153520;27;20280;-65
2021/04/15 05:46:37;;;;;;;14.20;9.97;;;;;;;5.15;87.05;95884.16;5153901;27;20724;-62
2021/04/15 05:49:07;;;;;;;17.70;10.50;;;;;;;5.28;86.20;95895.06;5153720;27;20197;-64
2021/04/15 05:51:43;;;;;;;10.27;8.73;;;;;;;5.40;84.03;95896.41;5153452;27;20664;-64
2021/04/15 05:54:14;;;;;;;13.27;9.63;;;;;;;5.63;84.58;95900.34;5153294;27;20300;-65
2021/04/15 05:56:53;;;;;;;11.93;8.87;;;;;;;5.41;83.39;95897.97;5153331;27;20193;-65
2021/04/15 05:59:27;;;;;;;25.03;12.33;;;;;;;5.62;83.94;95897.03;5153318;27;20204;-64
2021/04/15 06:02:10;;;;;;;14.63;8.80;;;;;;;5.41;82.42;95897.19;5153169;27;20255;-64
2021/04/15 06:04:41;;;;;;;12.40;9.03;;;;;;;5.25;84.84;95895.53;5153102;27;20194;-65
2021/04/15 06:07:12;;;;;;;12.90;9.00;;;;;;;5.19;84.11;95905.81;5152892;27;20197;-64
2021/04/15 06:09:39;;;;;;;14.03;8.90;;;;;;;5.34;83.74;95904.34;5153256;27;20217;-64
2021/04/15 06:12:15;;;;;;;12.20;9.17;;;;;;;5.31;83.33;95904.84;5152835;27;20192;-65
2021/04/15 06:14:47;;;;;;;12.07;8.57;;;;;;;5.26;83.22;95894.53;5152827;27;20310;-63
2021/04/15 06:17:32;;;;;;;19.07;10.30;;;;;;;5.57;82.91;95897.00;5152968;27;20201;-63
2021/04/15 06:20:08;;;;;;;12.30;9.17;;;;;;;5.41;82.79;95897.19;5153271;27;20251;-64
2021/04/15 06:22:39;;;;;;;12.80;9.17;;;;;;;5.52;82.98;95897.00;5152934;27;20221;-65
2021/04/15 06:25:09;;;;;;;12.30;9.00;;;;;;;5.63;81.38;95895.97;5153016;27;20186;-64
2021/04/15 06:27:36;;;;;;;15.93;9.00;;;;;;;5.74;83.01;95893.44;5152830;27;20200;-64
2021/04/15 06:30:08;;;;;;;11.43;7.67;;;;;;;5.71;82.36;95901.69;5152653;27;20216;-64
2021/04/15 06:32:40;;;;;;;10.20;8.10;;;;;;;5.73;81.06;95905.56;5152499;27;20190;-63
2021/04/15 06:35:12;;;;;;;9.23;7.20;;;;;;;5.67;79.91;95900.66;5152902;27;20223;-64
2021/04/15 06:37:44;;;;;;;13.63;9.13;;;;;;;5.90;81.43;95898.44;5152766;27;20288;-64
2021/04/15 06:40:46;;;;;;;9.57;7.90;;;;;;;5.84;79.28;95904.56;5152428;27;20653;-64
2021/04/15 06:43:40;;;;;;;9.27;7.57;;;;;;;5.99;79.14;95901.31;5152393;27;20210;-64
2021/04/15 06:46:16;;;;;;;9.80;7.93;;;;;;;5.94;77.93;95904.63;5146137;27;20200;-65
2021/04/15 06:49:36;;;;;;;10.87;8.57;;;;;;;5.91;79.24;95896.66;5152477;27;20197;-64
2021/04/15 06:52:15;;;;;;;11.90;8.40;;;;;;;5.68;79.95;95892.66;5045242;28;20310;-64
2021/04/15 06:55:01;;;;;;;11.10;8.60;;;;;;;5.92;79.57;95901.56;5048018;28;20224;-63
2021/04/15 06:58:01;;;;;;;10.60;8.43;;;;;;;5.98;76.77;95903.09;5130894;27;20577;-65
2021/04/15 07:00:53;;;;;;;14.57;8.83;;;;;;;6.48;76.91;95897.28;5152151;27;20217;-64
2021/04/15 07:03:36;;;;;;;11.83;9.00;;;;;;;6.73;77.11;95898.31;5152065;27;20190;-64
2021/04/15 07:06:09;;;;;;;11.30;8.20;;;;;;;6.77;73.57;95899.38;5152170;27;20438;-62
2021/04/15 07:08:51;;;;;;;12.03;9.27;;;;;;;7.04;76.12;95889.50;5152191;27;20197;-64
2021/04/15 07:11:51;;;;;;;13.77;9.43;;;;;;;7.66;73.20;95902.03;5151916;27;20289;-63
2021/04/15 07:14:37;;;;;;;12.50;9.40;;;;;;;7.52;70.03;95908.03;5151913;27;20236;-63
2021/04/15 07:17:34;;;;;;;10.80;8.60;;;;;;;7.58;70.29;95910.34;5151733;27;20194;-64
2021/04/15 07:20:21;;;;;;;11.13;8.17;;;;;;;7.34;70.58;95911.94;5151784;27;20688;-62
2021/04/15 07:23:45;;;;;;;13.83;9.90;;;;;;;7.48;72.70;95912.16;5138683;27;20221;-63
2021/04/15 07:26:41;;;;;;;10.93;9.03;;;;;;;7.62;72.19;95911.34;5151637;27;20186;-63
2021/04/15 07:29:39;;;;;;;12.33;8.93;;;;;;;7.86;71.24;95919.31;5151625;27;20193;-63
2021/04/15 07:32:38;;;;;;;11.80;9.00;;;;;;;7.30;70.79;95922.03;5151416;27;20239;-63
2021/04/15 07:35:34;;;;;;;14.53;9.97;;;;;;;6.90;72.09;95919.50;5151604;27;20244;-63
2021/04/15 07:38:39;;;;;;;15.27;9.87;;;;;;;7.08;71.61;95924.13;5130867;27;20223;-62
2021/04/15 07:41:22;;;;;;;12.63;9.10;;;;;;;7.01;73.25;95920.28;5151403;27;20659;-63
2021/04/15 07:44:13;;;;;;;13.77;9.23;;;;;;;6.68;72.99;95922.31;5151955;27;20200;-62
2021/04/15 07:46:50;;;;;;;10.97;8.80;;;;;;;6.59;72.44;95928.25;5151518;27;20196;-63
2021/04/15 07:49:46;;;;;;;13.70;9.57;;;;;;;6.32;73.57;95923.34;5151340;27;20272;-62
2021/04/15 07:52:38;;;;;;;10.97;8.50;;;;;;;6.53;71.97;95924.91;5105778;27;20203;-62
2021/04/15 07:55:30;;;;;;;16.83;9.20;;;;;;;6.39;72.02;95929.78;5129930;27;20307;-64
2021/04/15 07:58:49;;;;;;;12.17;8.90;;;;;;;6.33;72.75;95932.59;5151243;27;20572;-64
2021/04/15 08:01:38;;;;;;;14.53;9.43;;;;;;;6.46;72.92;95926.97;5103602;27;20221;-63
2021/04/15 08:04:48;;;;;;;11.03;8.73;;;;;;;6.37;71.88;95925.91;5151242;27;20371;-64
2021/04/15 08:07:56;;;;;;;12.57;8.47;;;;;;;6.55;71.57;95940.91;5151111;27;20583;-63
2021/04/15 08:11:14;;;;;;;12.30;8.10;;;;;;;6.57;68.02;95945.84;5130951;27;20231;-63
2021/04/15 08:14:05;;;;;;;11.83;8.37;;;;;;;6.47;71.20;95934.47;5066737;28;20200;-63
2021/04/15 08:16:46;;;;;;;11.10;7.77;;;;;;;6.54;68.20;95941.94;5067056;28;20206;-63
2021/04/15 08:19:48;;;;;;;10.67;7.53;;;;;;;6.43;68.38;95945.53;5126755;27;20193;-63
2021/04/15 08:22:26;;;;;;;14.03;9.07;;;;;;;6.27;72.25;95937.00;5146303;27;20265;-63
2021/04/15 08:25:02;;;;;;;14.17;9.80;;;;;;;6.30;71.75;95946.03;5150935;27;20189;-63
2021/04/15 08:27:58;;;;;;;12.97;9.33;;;;;;;6.23;71.79;95945.47;5151062;27;20224;-63
2021/04/15 08:30:48;;;;;;;10.37;8.57;;;;;;;6.34;71.04;95947.06;5151081;27;20688;-64
2021/04/15 08:33:47;;;;;;;12.17;8.97;;;;;;;6.37;71.92;95944.00;5151354;27;20413;-62
2021/04/15 08:36:45;;;;;;;13.83;9.47;;;;;;;6.39;72.14;95934.94;5150990;27;20284;-65
2021/04/15 08:39:30;;;;;;;10.40;8.50;;;;;;;6.57;71.61;95938.09;5143817;27;20200;-63
2021/04/15 08:42:06;;;;;;;12.77;9.27;;;;;;;6.33;71.32;95933.38;5153161;27;20282;-62
2021/04/15 08:44:53;;;;;;;13.30;9.17;;;;;;;6.44;71.91;95934.19;5154934;27;20190;-63
2021/04/15 08:47:41;;;;;;;11.17;9.13;;;;;;;6.51;72.60;95936.53;5154876;27;20189;-63
2021/04/15 08:50:14;;;;;;;13.80;8.60;;;;;;;6.47;71.12;95933.69;5154923;27;20216;-63
2021/04/15 08:52:44;;;;;;;12.33;9.27;;;;;;;6.64;71.33;95926.47;5154659;27;20275;-63
2021/04/15 08:55:26;;;;;;;14.63;9.47;;;;;;;6.65;71.25;95925.44;5154452;27;20241;-62
2021/04/15 08:58:06;;;;;;;11.53;8.93;;;;;;;6.70;68.75;95933.19;5154547;27;20193;-63
2021/04/15 09:00:42;;;;;;;14.47;10.60;;;;;;;6.56;70.89;95929.56;5154833;27;20242;-62
2021/04/15 09:03:36;;;;;;;12.50;9.80;;;;;;;6.46;70.02;95935.50;5154405;27;20228;-62
2021/04/15 09:06:17;;;;;;;13.87;9.67;;;;;;;6.52;70.04;95927.75;5154193;27;20196;-62
2021/04/15 09:09:02;;;;;;;12.77;8.67;;;;;;;6.48;68.13;95937.78;5154233;27;20197;-62
2021/04/15 09:11:37;;;;;;;12.87;8.43;;;;;;;6.58;68.77;95929.28;5154540;27;20213;-63
2021/04/15 09:14:14;;;;;;;13.10;10.00;;;;;;;6.25;69.41;95933.88;5154132;27;20410;-63
2021/04/15 09:16:42;;;;;;;11.10;8.20;;;;;;;6.49;68.52;95936.75;5154337;27;20820;-61
2021/04/15 09:19:22;;;;;;;14.20;8.83;;;;;;;6.42;68.13;95944.00;5154188;27;20201;-62
2021/04/15 09:21:55;;;;;;;10.93;8.23;;;;;;;6.44;68.28;95937.53;5154007;27;20256;-63
2021/04/15 09:24:34;;;;;;;12.73;8.83;;;;;;;6.82;68.62;95932.94;5154122;27;20244;-63
2021/04/15 09:27:26;;;;;;;12.07;8.30;;;;;;;6.97;68.56;95932.16;5153921;27;20258;-62
2021/04/15 09:30:07;;;;;;;12.77;7.97;;;;;;;7.16;68.53;95922.84;5154177;27;20675;-62
2021/04/15 09:32:43;;;;;;;11.87;8.20;;;;;;;7.60;67.99;95925.59;5153779;27;20212;-63
2021/04/15 09:35:19;;;;;;;15.13;8.33;;;;;;;7.13;64.38;95923.34;5154005;27;20193;-63
2021/04/15 09:38:21;;;;;;;14.47;9.23;;;;;;;7.53;66.85;95923.28;5154041;27;20632;-63
2021/04/15 09:41:03;;;;;;;13.27;8.83;;;;;;;7.53;65.91;95912.94;5136701;27;20281;-65
2021/04/15 09:44:09;;;;;;;12.17;7.80;;;;;;;7.60;65.88;95910.06;5153558;27;20296;-64
2021/04/15 09:46:50;;;;;;;14.17;9.17;;;;;;;7.75;64.46;95910.03;5149630;27;20193;-64
2021/04/15 09:49:25;;;;;;;11.50;8.87;;;;;;;7.81;66.48;95908.19;5153455;27;20217;-64
2021/04/15 09:52:36;;;;;;;11.87;8.33;;;;;;;7.59;64.65;95911.88;5153675;27;20193;-63
2021/04/15 09:55:23;;;;;;;10.20;8.07;;;;;;;7.15;66.22;95910.94;5105121;27;20224;-64
2021/04/15 09:57:56;;;;;;;9.90;7.53;;;;;;;7.01;65.13;95905.56;5153419;27;20190;-64
2021/04/15 10:00:27;;;;;;;10.87;7.40;;;;;;;7.29;66.47;95901.63;5153371;27;20196;-64
2021/04/15 10:03:13;;;;;;;13.27;8.27;;;;;;;7.46;64.58;95891.75;5153540;27;20233;-63
2021/04/15 10:06:03;;;;;;;11.10;6.97;;;;;;;7.45;62.87;95897.19;5150630;27;20193;-64
2021/04/15 10:08:40;;;;;;;9.77;7.73;;;;;;;7.33;64.37;95897.47;5140895;27;20575;-64
2021/04/15 10:11:21;;;;;;;11.77;8.00;;;;;;;7.37;63.42;95893.34;5152897;27;20249;-63
2021/04/15 10:14:13;;;;;;;11.47;7.07;;;;;;;7.40;63.44;95903.16;5152725;27;20198;-63
2021/04/15 10:16:47;;;;;;;11.60;7.90;;;;;;;7.34;62.84;95896.44;5152956;27;20285;-64
2021/04/15 10:19:50;;;;;;;10.00;7.53;;;;;;;7.57;63.69;95898.44;5152833;27;20198;-62
2021/04/15 10:22:28;;;;;;;10.00;7.47;;;;;;;7.54;62.52;95893.78;5135979;27;20880;-64
2021/04/15 10:25:04;;;;;;;8.50;6.57;;;;;;;7.51;62.29;95888.38;5152730;27;20209;-64
2021/04/15 10:27:49;;;;;;;9.57;7.37;;;;;;;7.66;63.58;95891.69;5152976;27;20212;-63
2021/04/15 10:30:43;;;;;;;8.53;7.10;;;;;;;7.77;60.90;95898.34;5152716;27;20205;-64
2021/04/15 10:33:39;;;;;;;8.27;6.33;;;;;;;7.87;60.49;95887.19;5152630;27;20714;-63
2021/04/15 10:36:42;;;;;;;10.70;7.27;;;;;;;7.92;62.53;95878.66;5152351;27;20200;-64
2021/04/15 10:39:51;;;;;;;7.77;6.37;;;;;;;8.16;61.61;95885.50;5152224;27;20200;-65
2021/04/15 10:42:53;;;;;;;10.47;7.63;;;;;;;8.15;61.14;95873.59;5150418;27;21019;-63
2021/04/15 10:45:56;;;;;;;8.77;6.63;;;;;;;8.43;60.51;95869.56;5148264;27;20272;-64
2021/04/15 10:48:36;;;;;;;7.53;5.80;;;;;;;8.64;57.69;95876.16;5148173;27;20701;-64
2021/04/15 10:51:06;;;;;;;9.40;6.77;;;;;;;8.71;57.70;95869.88;5152388;27;20201;-64
2021/04/15 10:53:46;;;;;;;7.30;6.07;;;;;;;8.81;55.92;95872.41;5152300;27;20668;-64
2021/04/15 10:56:28;;;;;;;6.73;5.53;;;;;;;8.89;55.92;95869.22;5152158;27;20218;-64
2021/04/15 10:59:06;;;;;;;7.63;5.80;;;;;;;8.85;52.77;95863.03;5152394;27;20579;-64
2021/04/15 11:01:36;;;;;;;15.07;6.30;;;;;;;9.06;54.55;95861.81;5152137;27;20244;-63
2021/04/15 11:04:23;;;;;;;8.03;6.43;;;;;;;9.57;55.82;95856.84;5152024;27;20194;-63
2021/04/15 11:06:53;;;;;;;7.73;5.80;;;;;;;9.49;53.41;95855.63;5151981;27;20193;-64
2021/04/15 11:09:36;;;;;;;8.87;5.30;;;;;;;9.40;51.56;95862.50;5152474;27;20193;-63
2021/04/15 11:12:07;;;;;;;5.53;4.50;;;;;;;9.43;50.44;95851.56;5152289;27;20193;-63
2021/04/15 11:14:38;;;;;;;5.97;4.87;;;;;;;9.99;50.63;95853.47;5151879;27;20652;-63
2021/04/15 11:17:17;;;;;;;7.27;5.17;;;;;;;9.93;48.64;95847.56;5152168;27;20633;-63
2021/04/15 11:19:44;;;;;;;6.20;4.60;;;;;;;9.60;52.91;95856.31;5151924;27;20186;-64
2021/04/15 11:22:16;;;;;;;6.33;5.10;;;;;;;9.17;53.05;95852.09;5151753;27;20674;-63
2021/04/15 11:24:43;;;;;;;5.07;4.53;;;;;;;9.23;53.60;95856.97;5151801;27;20676;-63
2021/04/15 11:27:11;;;;;;;7.27;5.13;;;;;;;8.83;55.47;95855.53;5151596;27;20198;-63
2021/04/15 11:29:44;;;;;;;7.20;5.23;;;;;;;8.85;54.19;95860.44;5151633;27;20208;-63
2021/04/15 11:32:36;;;;;;;5.97;4.50;;;;;;;8.76;52.64;95865.44;5151679;27;20580;-63
2021/04/15 11:35:10;;;;;;;5.77;4.23;;;;;;;8.77;51.64;95859.19;5140171;27;20667;-63
2021/04/15 11:37:38;;;;;;;6.37;4.57;;;;;;;8.69;52.21;95859.00;5151422;27;20202;-62
2021/04/15 11:40:22;;;;;;;6.43;4.40;;;;;;;8.81;53.12;95856.84;5151472;27;20592;-62
2021/04/15 11:42:49;;;;;;;6.47;4.27;;;;;;;9.05;51.89;95857.66;5151536;27;20286;-63
2021/04/15 11:45:28;;;;;;;7.77;4.67;;;;;;;9.11;51.61;95856.56;5151442;27;20217;-63
2021/04/15 11:48:12;;;;;;;5.73;4.20;;;;;;;8.92;51.52;95860.88;5151365;27;20210;-63
2021/04/15 11:50:39;;;;;;;6.67;4.47;;;;;;;9.20;53.46;95847.16;5151464;27;20189;-63
2021/04/15 11:53:25;;;;;;;7.17;5.17;;;;;;;9.07;50.91;95858.91;5151266;27;20201;-64
2021/04/15 11:56:21;;;;;;;6.37;4.67;;;;;;;8.73;51.93;95852.25;5151440;27;20209;-63
2021/04/15 11:58:48;;;;;;;5.87;4.43;;;;;;;8.58;52.49;95851.31;5151381;27;20198;-63
2021/04/15 12:01:25;;;;;;;6.77;4.97;;;;;;;8.69;51.25;95851.25;5151502;27;20673;-63
2021/04/15 12:03:58;;;;;;;13.40;6.03;;;;;;;8.44;50.87;95850.41;5151025;27;20221;-63
2021/04/15 12:06:31;;;;;;;5.83;4.20;;;;;;;8.72;52.79;95858.50;5151161;27;20205;-63
2021/04/15 12:08:58;;;;;;;8.17;4.13;;;;;;;8.63;51.93;95850.50;5151204;27;20198;-63
2021/04/15 12:11:32;;;;;;;7.17;4.37;;;;;;;8.68;52.93;95854.88;5151129;27;20277;-63
2021/04/15 12:14:01;;;;;;;8.10;4.33;;;;;;;8.58;53.68;95850.53;5150823;27;20316;-64
2021/04/15 12:16:40;;;;;;;6.00;4.67;;;;;;;8.61;53.33;95850.81;5152473;27;20193;-63
2021/04/15 12:19:19;;;;;;;5.90;4.27;;;;;;;8.67;52.53;95850.75;5155189;27;20185;-63
2021/04/15 12:21:50;;;;;;;6.83;4.20;;;;;;;8.61;53.07;95847.44;5155165;27;20233;-64
2021/04/15 12:24:23;;;;;;;6.07;3.80;;;;;;;8.52;51.63;95855.00;5155130;27;20194;-61
2021/04/15 12:26:56;;;;;;;5.80;3.90;;;;;;;8.46;51.90;95848.31;5155168;27;20190;-64